Time;durP1;ratioP1;P1;durP2;ratioP2;P2;SDS_P1;SDS_P2;PMS_P1;PMS_P2;Temp;Humidity;BMP_temperature;BMP_pressure;BME280_temperature;BME280_humidity;BME280_pressure;Samples;Min_cycle;Max_cycle;Signal;HPM_P1;HPM_P2
2023/07/19 00:00:41;;;;;;;;;;;24.20;92.30;;;24.38;54.42;98397.63;4971400;28;118700;-78
2023/07/19 00:03:08;;;;;;;;;;;24.10;92.20;;;24.35;54.60;98392.81;4984246;28;117877;-81
2023/07/19 00:05:34;;;;;;;;;;;24.10;92.30;;;24.34;54.50;98402.47;4987923;28;125183;-80
2023/07/19 00:08:04;;;;;;;;;;;24.10;92.30;;;24.34;54.53;98402.47;4986876;28;123620;-80
2023/07/19 00:10:31;;;;;;;;;;;24.10;92.40;;;24.34;54.31;98392.00;4989368;28;119912;-80
2023/07/19 00:12:57;;;;;;;;;;;24.10;92.40;;;24.35;54.39;98401.28;4983089;28;118303;-80
2023/07/19 00:15:24;;;;;;;;;;;24.00;92.40;;;24.34;54.58;98405.31;4984767;28;124170;-80
2023/07/19 00:17:51;;;;;;;;;;;24.00;92.40;;;24.32;54.66;98394.44;4968974;28;124494;-80
2023/07/19 00:20:18;;;;;;;;;;;24.00;92.40;;;24.30;54.65;98396.06;4987136;28;120845;-80
2023/07/19 00:22:45;;;;;;;;;;;24.00;92.50;;;24.29;54.62;98400.09;4987986;28;119251;-80
2023/07/19 00:25:13;;;;;;;;;;;24.00;92.50;;;24.27;54.58;98385.63;4971784;28;123640;-80
2023/07/19 00:27:40;;;;;;;;;;;24.00;92.50;;;24.26;54.59;98384.81;4988929;28;123423;-80
2023/07/19 00:30:06;;;;;;;;;;;24.00;92.60;;;24.25;54.70;98381.16;4983473;28;120030;-80
2023/07/19 00:32:33;;;;;;;;;;;24.00;92.60;;;24.24;54.77;98384.41;4989407;28;118776;-79
2023/07/19 00:34:59;;;;;;;;;;;24.00;92.60;;;24.23;54.41;98385.63;4985413;28;124327;-80
2023/07/19 00:37:25;;;;;;;;;;;23.90;92.60;;;24.21;54.61;98388.88;4990986;28;124502;-80
2023/07/19 00:39:51;;;;;;;;;;;23.90;92.60;;;24.20;54.60;98390.06;4984553;28;119308;-79
2023/07/19 00:42:18;;;;;;;;;;;23.90;92.60;;;24.20;54.70;98380.81;4988350;28;119304;-80
2023/07/19 00:48:25;;;;;;;;;;;23.90;92.70;;;24.13;54.76;98395.78;4986825;28;125030;-80
2023/07/19 00:50:55;;;;;;;;;;;23.90;92.80;;;24.13;54.87;98381.69;4985501;28;119986;-80
2023/07/19 00:53:23;;;;;;;;;;;23.90;92.80;;;24.13;54.98;98387.31;4985892;28;118717;-80
2023/07/19 00:55:50;;;;;;;;;;;23.90;92.90;;;24.13;55.19;98387.31;4984860;28;124518;-81
2023/07/19 00:58:18;;;;;;;;;;;23.90;92.90;;;24.11;55.49;98389.75;4979785;28;124008;-80
2023/07/19 01:00:49;;;;;;;;;;;23.80;92.90;;;24.09;55.42;98389.34;4975457;28;119436;-81
2023/07/19 01:03:15;;;;;;;;;;;23.80;93.10;;;24.08;55.42;98387.75;4979595;28;118003;-80
2023/07/19 01:05:42;;;;;;;;;;;23.80;93.20;;;24.06;55.76;98376.06;4974240;28;123516;-80
2023/07/19 01:08:11;;;;;;;;;;;23.80;93.20;;;24.03;55.71;98382.53;4985490;28;123356;-80
2023/07/19 01:10:38;;;;;;;;;;;23.80;93.30;;;24.00;55.46;98381.34;4993507;28;121014;-80
2023/07/19 01:13:11;;;;;;;;;;;23.70;93.20;;;23.96;55.34;98383.38;4984868;28;118949;-80
2023/07/19 01:15:40;;;;;;;;;;;23.70;93.10;;;23.94;55.62;98382.22;4976745;28;124780;-80
2023/07/19 01:18:06;;;;;;;;;;;23.70;93.10;;;23.92;55.75;98391.06;4979583;28;123842;-80
2023/07/19 01:20:33;;;;;;;;;;;23.70;93.20;;;23.91;55.52;98391.47;4986720;28;120208;-80
2023/07/19 01:23:00;;;;;;;;;;;23.70;93.10;;;23.88;55.52;98395.13;4971192;28;117715;-81
2023/07/19 01:25:26;;;;;;;;;;;23.60;93.10;;;23.86;55.42;98394.72;4970919;28;124789;-81
2023/07/19 01:27:52;;;;;;;;;;;23.60;93.10;;;23.86;55.47;98386.25;4985261;28;123863;-80
2023/07/19 01:30:19;;;;;;;;;;;23.60;93.20;;;23.86;55.56;98386.25;4985064;28;119645;-81
2023/07/19 01:32:45;;;;;;;;;;;23.60;93.20;;;23.85;55.59;98390.31;4975278;28;118787;-78
2023/07/19 01:35:12;;;;;;;;;;;23.60;93.20;;;23.84;55.28;98385.91;4980184;28;124826;-78
2023/07/19 01:37:39;;;;;;;;;;;23.60;93.20;;;23.81;55.41;98388.31;4971486;28;123624;-79
2023/07/19 01:40:06;;;;;;;;;;;23.60;93.60;;;23.80;55.82;98380.25;4972145;28;119061;-79
2023/07/19 01:42:32;;;;;;;;;;;23.50;93.30;;;23.75;55.69;98373.03;4988858;28;119141;-82
2023/07/19 01:45:01;;;;;;;;;;;23.50;93.30;;;23.73;55.65;98375.47;4985299;28;123236;-79
2023/07/19 01:47:27;;;;;;;;;;;23.50;93.40;;;23.70;55.74;98379.09;4970613;28;123288;-79
2023/07/19 01:49:54;;;;;;;;;;;23.50;93.40;;;23.70;55.57;98376.25;4986054;28;119263;-79
2023/07/19 01:52:21;;;;;;;;;;;23.50;93.40;;;23.69;55.87;98374.63;4987912;28;117755;-79
2023/07/19 01:54:47;;;;;;;;;;;23.40;93.30;;;23.69;55.75;98371.03;4984416;28;124213;-79
2023/07/19 01:57:15;;;;;;;;;;;23.40;93.30;;;23.69;55.77;98380.28;4984071;28;124591;-80
2023/07/19 01:59:42;;;;;;;;;;;23.40;93.40;;;23.70;55.92;98386.75;4988105;28;119959;-80
2023/07/19 02:02:10;;;;;;;;;;;23.40;93.40;;;23.69;55.85;98385.91;4983415;28;119719;-80
2023/07/19 02:04:37;;;;;;;;;;;23.40;93.40;;;23.69;55.77;98383.09;4979912;28;124533;-80
2023/07/19 02:07:05;;;;;;;;;;;23.40;93.40;;;23.68;55.61;98384.31;4966336;28;124570;-80
2023/07/19 02:09:32;;;;;;;;;;;23.40;93.40;;;23.68;55.69;98387.16;4980832;28;119471;-80
2023/07/19 02:11:58;;;;;;;;;;;23.40;93.50;;;23.69;55.88;98380.28;4986940;28;118326;-80
2023/07/19 02:14:24;;;;;;;;;;;23.40;93.50;;;23.69;55.89;98380.28;4985489;28;124383;-80
2023/07/19 02:16:53;;;;;;;;;;;23.40;93.50;;;23.68;55.96;98389.97;4977748;28;123836;-80
2023/07/19 02:19:19;;;;;;;;;;;23.40;93.50;;;23.67;55.63;98393.19;4978867;28;119106;-80
2023/07/19 02:21:48;;;;;;;;;;;23.40;93.50;;;23.66;55.88;98397.22;4981624;28;118792;-80
2023/07/19 02:24:15;;;;;;;;;;;23.40;93.60;;;23.63;55.87;98403.69;4974817;28;123812;-79
2023/07/19 02:26:41;;;;;;;;;;;23.40;93.60;;;23.61;55.80;98406.91;4977731;28;123858;-80
2023/07/19 02:29:10;;;;;;;;;;;23.30;93.50;;;23.59;55.79;98406.53;4974439;28;119384;-80
2023/07/19 02:31:37;;;;;;;;;;;23.30;93.50;;;23.58;55.94;98408.53;4984747;28;118964;-80
2023/07/19 02:34:07;;;;;;;;;;;23.30;93.60;;;23.57;55.77;98412.59;4984298;28;124244;-80
2023/07/19 02:36:35;;;;;;;;;;;23.30;93.60;;;23.55;56.09;98411.38;4985311;28;124069;-79
2023/07/19 02:39:04;;;;;;;;;;;23.30;93.60;;;23.54;55.92;98409.78;4987499;28;119772;-80
2023/07/19 02:41:31;;;;;;;;;;;23.30;93.70;;;23.52;55.99;98403.75;4987054;28;118518;-80
2023/07/19 02:44:00;;;;;;;;;;;23.30;93.70;;;23.51;56.05;98405.75;4970479;28;123789;-80
2023/07/19 02:46:26;;;;;;;;;;;23.20;93.60;;;23.49;55.97;98410.22;4983945;28;124633;-80
2023/07/19 02:48:52;;;;;;;;;;;23.20;93.70;;;23.48;56.15;98408.56;4985569;28;119958;-80
2023/07/19 02:51:18;;;;;;;;;;;23.20;93.70;;;23.47;56.27;98404.16;4983700;28;119840;-80
2023/07/19 02:53:45;;;;;;;;;;;23.20;93.70;;;23.46;56.10;98417.47;4970844;28;124190;-80
2023/07/19 02:56:11;;;;;;;;;;;23.20;93.70;;;23.45;56.01;98413.03;4981286;28;122917;-80
2023/07/19 02:58:37;;;;;;;;;;;23.20;93.80;;;23.43;56.13;98423.94;4965310;28;119271;-80
2023/07/19 03:01:03;;;;;;;;;;;23.20;93.80;;;23.41;56.38;98419.91;4983146;28;117659;-80
2023/07/19 03:03:32;;;;;;;;;;;23.10;93.70;;;23.40;56.16;98423.91;4984051;28;124430;-81
2023/07/19 03:05:58;;;;;;;;;;;23.10;93.70;;;23.37;55.93;98423.53;4984955;28;125442;-80
2023/07/19 03:08:24;;;;;;;;;;;23.10;93.70;;;23.35;56.15;98437.25;4970886;28;118962;-80
2023/07/19 03:10:54;;;;;;;;;;;23.10;93.70;;;23.34;56.11;98432.78;4985763;28;118480;-80
2023/07/19 03:13:20;;;;;;;;;;;23.10;93.80;;;23.34;56.08;98440.44;4982795;28;124306;-80
2023/07/19 03:15:49;;;;;;;;;;;23.10;93.80;;;23.34;56.14;98434.81;4984868;28;124364;-80
2023/07/19 03:18:15;;;;;;;;;;;23.10;93.80;;;23.31;56.30;98444.88;4978185;28;119390;-80
2023/07/19 03:20:42;;;;;;;;;;;23.10;93.80;;;23.30;56.19;98434.84;4996882;28;119669;-80
2023/07/19 03:23:08;;;;;;;;;;;23.00;93.80;;;23.27;56.14;98438.47;4999226;28;124117;-79
2023/07/19 03:25:34;;;;;;;;;;;23.00;93.80;;;23.26;56.08;98439.66;4983749;28;124667;-80
2023/07/19 03:28:01;;;;;;;;;;;23.00;93.80;;;23.24;56.32;98444.94;4983392;28;119754;-80
2023/07/19 03:30:27;;;;;;;;;;;23.00;93.80;;;23.22;56.54;98443.72;4991410;28;119261;-80
2023/07/19 03:32:53;;;;;;;;;;;23.00;93.90;;;23.20;56.59;98446.94;4987086;28;124361;-80
2023/07/19 03:35:22;;;;;;;;;;;22.90;93.90;;;23.19;56.62;98442.53;4986153;28;124335;-79
2023/07/19 03:37:48;;;;;;;;;;;23.00;94.00;;;23.16;56.80;98443.34;4987342;28;120511;-79
2023/07/19 03:40:14;;;;;;;;;;;22.90;94.00;;;23.14;57.01;98442.94;4987052;28;120625;-80
2023/07/19 03:42:41;;;;;;;;;;;22.90;94.00;;;23.11;56.75;98452.19;4988800;28;123936;-79
2023/07/19 03:45:07;;;;;;;;;;;22.90;94.10;;;23.09;56.95;98448.97;4988375;28;124049;-79
2023/07/19 03:47:34;;;;;;;;;;;22.80;94.10;;;23.08;56.67;98453.00;4973532;28;118316;-80
2023/07/19 03:50:04;;;;;;;;;;;22.80;94.10;;;23.07;56.79;98457.81;4985200;28;119180;-80
2023/07/19 03:52:30;;;;;;;;;;;22.80;94.10;;;23.09;57.02;98465.88;4983544;28;124438;-79
2023/07/19 03:54:59;;;;;;;;;;;22.80;94.20;;;23.07;56.79;98460.63;4987156;28;123660;-79
2023/07/19 03:57:25;;;;;;;;;;;22.80;94.20;;;23.05;57.04;98460.25;4989842;28;119182;-79
2023/07/19 03:59:51;;;;;;;;;;;22.80;94.20;;;23.04;56.72;98467.09;4969598;28;117702;-79
2023/07/19 04:02:19;;;;;;;;;;;22.80;94.30;;;23.04;56.86;98463.47;4968752;28;125003;-80
2023/07/19 04:04:45;;;;;;;;;;;22.70;94.20;;;23.03;56.94;98453.41;4985339;28;123855;-80
2023/07/19 04:07:11;;;;;;;;;;;22.70;94.30;;;23.03;57.00;98464.69;4988414;28;119650;-79
2023/07/19 04:09:38;;;;;;;;;;;22.70;94.30;;;23.03;56.81;98457.03;4986480;28;118874;-79
2023/07/19 04:12:05;;;;;;;;;;;22.70;94.30;;;23.03;56.81;98465.50;4986743;28;125551;-80
2023/07/19 04:14:31;;;;;;;;;;;22.70;94.30;;;23.04;57.23;98469.09;4990617;28;124261;-79
2023/07/19 04:16:57;;;;;;;;;;;22.80;94.40;;;23.04;56.97;98466.28;4987639;28;119557;-80
2023/07/19 04:19:26;;;;;;;;;;;22.70;94.30;;;23.04;56.85;98460.66;4987646;28;118426;-79
2023/07/19 04:21:52;;;;;;;;;;;22.70;94.30;;;23.03;56.95;98462.69;4969128;28;124718;-79
2023/07/19 04:24:18;;;;;;;;;;;22.80;94.40;;;23.03;56.88;98459.84;4966545;28;123730;-79
2023/07/19 04:26:45;;;;;;;;;;;22.70;94.40;;;23.06;57.10;98463.88;4966355;28;120495;-80
2023/07/19 04:29:11;;;;;;;;;;;22.70;94.40;;;23.06;57.04;98461.84;4981041;28;119778;-78
2023/07/19 04:31:38;;;;;;;;;;;22.70;94.40;;;23.08;56.97;98465.09;4985521;28;124833;-79
2023/07/19 04:34:09;;;;;;;;;;;22.70;94.50;;;23.10;57.05;98461.84;4986048;28;124056;-79
2023/07/19 04:36:35;;;;;;;;;;;22.70;94.50;;;23.13;57.24;98466.66;4972304;28;119020;-79
2023/07/19 04:39:04;;;;;;;;;;;22.80;94.60;;;23.14;57.13;98459.84;4986589;28;120760;-79
2023/07/19 04:41:30;;;;;;;;;;;22.80;94.60;;;23.14;56.94;98463.47;4986130;28;124206;-80
2023/07/19 04:43:56;;;;;;;;;;;22.80;94.60;;;23.17;57.08;98461.03;4984992;28;123953;-79
2023/07/19 04:46:22;;;;;;;;;;;22.80;94.60;;;23.18;56.98;98469.06;4986351;28;119291;-79
2023/07/19 04:48:49;;;;;;;;;;;22.80;94.50;;;23.21;57.11;98459.81;4986849;28;118570;-80
2023/07/19 04:51:15;;;;;;;;;;;22.90;94.60;;;23.26;56.81;98462.22;4985139;28;125002;-79
2023/07/19 04:53:41;;;;;;;;;;;22.90;94.60;;;23.30;56.60;98462.22;4986592;28;124546;-79
2023/07/19 04:56:08;;;;;;;;;;;22.90;94.50;;;23.34;56.36;98454.53;4987072;28;119368;-79
2023/07/19 04:58:34;;;;;;;;;;;22.90;94.40;;;23.38;56.14;98456.16;4986052;28;118779;-79
2023/07/19 05:01:07;;;;;;;;;;;23.00;94.30;;;23.43;56.17;98452.13;4986273;28;124808;-79
2023/07/19 05:03:35;;;;;;;;;;;23.00;94.30;;;23.49;55.77;98449.69;4988325;28;123413;-80
2023/07/19 05:06:01;;;;;;;;;;;23.00;94.20;;;23.54;55.82;98444.44;4984897;28;119462;-80
2023/07/19 05:08:28;;;;;;;;;;;23.10;94.20;;;23.58;55.40;98444.41;4987258;28;118625;-80
2023/07/19 05:10:54;;;;;;;;;;;23.10;93.90;;;23.59;54.63;98437.56;4985392;28;123670;-79
2023/07/19 05:13:20;;;;;;;;;;;23.10;93.50;;;23.58;54.00;98430.31;4982953;28;124396;-79
2023/07/19 05:15:46;;;;;;;;;;;23.10;93.20;;;23.57;53.79;98429.50;4984360;28;120520;-79
2023/07/19 05:18:15;;;;;;;;;;;23.20;93.00;;;23.54;53.23;98430.31;4985231;28;119662;-79
2023/07/19 05:20:41;;;;;;;;;;;23.20;92.70;;;23.55;53.12;98425.47;4988152;28;124401;-78
2023/07/19 05:23:08;;;;;;;;;;;23.20;92.50;;;23.57;52.98;98428.69;4987618;28;123886;-79
2023/07/19 05:25:34;;;;;;;;;;;23.20;92.30;;;23.59;52.65;98427.09;4983432;28;120603;-78
2023/07/19 05:28:01;;;;;;;;;;;23.20;92.00;;;23.59;52.02;98432.72;4983674;28;118984;-79
2023/07/19 05:30:27;;;;;;;;;;;23.20;91.80;;;23.65;52.06;98432.31;4983713;28;123952;-79
2023/07/19 05:32:53;;;;;;;;;;;23.20;91.70;;;23.69;51.81;98421.78;4984363;28;123841;-79
2023/07/19 05:35:19;;;;;;;;;;;23.30;91.60;;;23.74;51.62;98425.03;4986043;28;118449;-82
2023/07/19 05:37:48;;;;;;;;;;;23.30;91.40;;;23.78;51.35;98423.00;4984086;28;118921;-82
2023/07/19 05:40:17;;;;;;;;;;;23.30;91.30;;;23.87;51.63;98425.38;4985096;28;125016;-81
2023/07/19 05:42:43;;;;;;;;;;;23.40;91.40;;;23.96;51.04;98424.91;4985865;28;124541;-81
2023/07/19 05:45:09;;;;;;;;;;;23.50;91.30;;;24.01;50.93;98421.66;4986455;28;119436;-82
2023/07/19 05:47:36;;;;;;;;;;;23.50;91.00;;;24.07;50.62;98424.84;4984797;28;119480;-82
2023/07/19 05:50:03;;;;;;;;;;;23.60;90.90;;;24.16;50.36;98430.84;4984903;28;124179;-81
2023/07/19 05:52:29;;;;;;;;;;;23.60;90.80;;;24.23;50.25;98423.16;4988371;28;123744;-82
2023/07/19 05:54:55;;;;;;;;;;;23.70;90.70;;;24.31;49.69;98420.25;4984161;28;119801;-82
2023/07/19 05:57:22;;;;;;;;;;;23.70;90.50;;;24.36;49.61;98425.47;4986011;28;119074;-81
2023/07/19 05:59:48;;;;;;;;;;;23.80;90.40;;;24.41;49.57;98425.03;4984434;28;124917;-81
2023/07/19 06:02:14;;;;;;;;;;;23.90;90.50;;;24.48;49.23;98435.50;4985799;28;124410;-81
2023/07/19 06:04:41;;;;;;;;;;;23.90;90.10;;;24.55;49.44;98436.25;4985356;28;119730;-82
2023/07/19 06:07:07;;;;;;;;;;;24.00;90.10;;;24.64;49.46;98433.75;4956811;28;118751;-81
2023/07/19 06:09:34;;;;;;;;;;;24.10;90.10;;;24.74;49.20;98426.41;4976655;28;124374;-81
2023/07/19 06:12:00;;;;;;;;;;;24.20;90.10;;;24.81;48.69;98440.47;4965677;28;125794;-81
2023/07/19 06:14:26;;;;;;;;;;;24.20;90.00;;;24.91;49.12;98441.59;4981869;28;118517;-81
2023/07/19 06:16:53;;;;;;;;;;;24.30;89.90;;;25.00;48.59;98441.13;4984491;28;118949;-82
2023/07/19 06:19:21;;;;;;;;;;;24.40;89.80;;;25.09;48.50;98442.25;4986322;28;124573;-81
2023/07/19 06:21:47;;;;;;;;;;;24.50;89.80;;;25.22;48.49;98436.06;4984794;28;124254;-81
2023/07/19 06:24:14;;;;;;;;;;;24.60;89.80;;;25.32;48.10;98437.97;4972159;28;119473;-81
2023/07/19 06:26:40;;;;;;;;;;;24.70;89.50;;;25.38;47.90;98430.63;4985166;28;118835;-81
2023/07/19 06:29:06;;;;;;;;;;;24.80;89.30;;;25.46;48.06;98432.16;4984023;28;125149;-81
2023/07/19 06:31:32;;;;;;;;;;;24.90;89.20;;;25.52;47.70;98435.31;4983286;28;124751;-81
2023/07/19 06:33:58;;;;;;;;;;;24.90;88.80;;;25.59;47.78;98437.28;4984368;28;119867;-81
2023/07/19 06:36:26;;;;;;;;;;;25.00;88.70;;;25.66;47.51;98446.50;4985126;28;118542;-81
2023/07/19 06:38:52;;;;;;;;;;;25.10;88.40;;;25.73;47.53;98445.59;4975911;28;124191;-84
2023/07/19 06:41:19;;;;;;;;;;;25.10;88.20;;;25.81;47.42;98440.63;4968841;28;123923;-79
2023/07/19 06:43:45;;;;;;;;;;;25.20;88.10;;;25.89;47.16;98445.81;4975638;28;119104;-81
2023/07/19 06:46:11;;;;;;;;;;;25.30;88.10;;;25.99;47.62;98447.69;4984982;28;118652;-80
2023/07/19 06:48:37;;;;;;;;;;;25.40;88.10;;;26.06;46.80;98440.31;4977952;28;124415;-81
2023/07/19 06:51:04;;;;;;;;;;;25.40;87.80;;;26.10;47.12;98446.75;4967554;28;123391;-81
2023/07/19 06:53:30;;;;;;;;;;;25.50;87.90;;;26.15;47.49;98440.63;4983551;28;121065;-81
2023/07/19 06:56:01;;;;;;;;;;;25.60;87.90;;;26.25;47.39;98450.16;4982865;28;119559;-81
2023/07/19 06:58:29;;;;;;;;;;;25.60;87.80;;;26.31;47.04;98442.81;4981597;28;124553;-80
2023/07/19 07:00:56;;;;;;;;;;;25.70;87.50;;;26.36;47.30;98445.97;4984143;28;124031;-81
2023/07/19 07:03:22;;;;;;;;;;;25.70;87.40;;;26.34;47.16;98448.41;4984597;28;119867;-81
2023/07/19 07:05:49;;;;;;;;;;;25.80;87.60;;;26.35;47.46;98452.84;4983987;28;118753;-80
2023/07/19 07:08:15;;;;;;;;;;;25.80;87.80;;;26.41;47.84;98456.81;4988312;28;124348;-80
2023/07/19 07:10:46;;;;;;;;;;;25.90;88.20;;;26.48;47.55;98460.75;4988079;28;124274;-80
2023/07/19 07:13:12;;;;;;;;;;;25.90;88.20;;;26.53;47.39;98457.47;4991639;28;119554;-80
2023/07/19 07:15:39;;;;;;;;;;;26.00;87.90;;;26.54;47.12;98450.56;4984776;28;118757;-82
2023/07/19 07:18:06;;;;;;;;;;;26.00;87.70;;;26.57;46.46;98447.69;4984035;28;124908;-83
2023/07/19 07:20:35;;;;;;;;;;;26.00;86.20;;;26.62;45.22;98446.41;4988357;28;123984;-82
2023/07/19 07:23:02;;;;;;;;;;;26.10;84.60;;;26.69;44.83;98454.00;4990101;28;119558;-82
2023/07/19 07:25:30;;;;;;;;;;;26.20;84.20;;;26.74;43.06;98442.16;4988376;28;118840;-81
2023/07/19 07:27:56;;;;;;;;;;;26.20;80.90;;;26.80;42.62;98440.44;4987377;28;124366;-82
2023/07/19 07:30:23;;;;;;;;;;;26.30;80.00;;;26.87;41.28;98441.13;4985177;28;122822;-81
2023/07/19 07:32:49;;;;;;;;;;;26.30;77.40;;;26.92;41.01;98447.53;4981004;28;120118;-81
2023/07/19 07:35:16;;;;;;;;;;;26.30;76.90;;;26.97;40.63;98445.00;4986545;28;118046;-82
2023/07/19 07:37:43;;;;;;;;;;;26.40;76.20;;;27.02;39.49;98444.50;4985962;28;124651;-82
2023/07/19 07:40:11;;;;;;;;;;;26.50;73.90;;;27.07;38.65;98452.50;4985354;28;124662;-82
2023/07/19 07:42:38;;;;;;;;;;;26.50;71.60;;;27.11;37.47;98458.13;4987930;28;120498;-83
2023/07/19 07:45:05;;;;;;;;;;;26.60;69.80;;;27.17;36.68;98449.97;4972017;28;118432;-82
2023/07/19 07:47:31;;;;;;;;;;;26.60;68.50;;;27.22;37.26;98453.09;4989292;28;123538;-81
2023/07/19 07:50:00;;;;;;;;;;;26.60;68.20;;;27.33;36.60;98457.78;4985046;28;124233;-84
2023/07/19 07:52:27;;;;;;;;;;;26.70;67.80;;;27.42;36.48;98449.47;4987128;28;119537;-82
2023/07/19 07:54:53;;;;;;;;;;;26.80;67.20;;;27.48;35.95;98456.25;4989320;28;119546;-81
2023/07/19 07:57:19;;;;;;;;;;;26.90;65.90;;;27.57;35.51;98450.81;4972387;28;123785;-81
2023/07/19 07:59:46;;;;;;;;;;;27.00;65.10;;;27.61;34.57;98445.84;4984977;28;124148;-81
2023/07/19 08:02:12;;;;;;;;;;;27.00;62.70;;;27.63;33.85;98451.91;4988775;28;119081;-81
2023/07/19 08:04:41;;;;;;;;;;;27.10;61.90;;;27.66;33.49;98453.06;4986236;28;118694;-82
2023/07/19 08:07:09;;;;;;;;;;;27.10;60.30;;;27.68;33.20;98451.38;4987212;28;124213;-82
2023/07/19 08:09:37;;;;;;;;;;;27.20;60.00;;;27.73;33.08;98456.56;4976550;28;123864;-82
2023/07/19 08:12:04;;;;;;;;;;;27.20;59.10;;;27.79;32.32;98456.84;4972674;28;118448;-82
2023/07/19 08:14:31;;;;;;;;;;;27.30;58.20;;;27.81;31.82;98459.25;4989125;28;118033;-82
2023/07/19 08:16:57;;;;;;;;;;;27.30;56.90;;;27.80;31.36;98464.16;4985830;28;124184;-82
2023/07/19 08:19:25;;;;;;;;;;;27.30;55.70;;;27.81;31.25;98451.56;4986993;28;124036;-82
2023/07/19 08:21:52;;;;;;;;;;;27.30;55.20;;;27.85;31.73;98460.00;4986699;28;120017;-82
2023/07/19 08:24:18;;;;;;;;;;;27.40;55.60;;;27.90;31.38;98459.50;4985841;28;119018;-82
2023/07/19 08:26:44;;;;;;;;;;;27.40;55.20;;;27.94;30.99;98454.53;4985032;28;124046;-82
2023/07/19 08:29:11;;;;;;;;;;;27.50;54.50;;;27.97;30.75;98451.63;4986015;28;123590;-82
2023/07/19 08:31:38;;;;;;;;;;;27.50;54.10;;;27.98;29.85;98453.22;4984706;28;120407;-81
2023/07/19 08:34:04;;;;;;;;;;;27.60;52.40;;;28.00;30.28;98443.47;4987214;28;119703;-82
2023/07/19 08:36:30;;;;;;;;;;;27.60;52.40;;;28.02;29.98;98447.44;4986503;28;124970;-81
2023/07/19 08:38:56;;;;;;;;;;;27.60;52.20;;;28.06;29.02;98436.03;4984979;28;124511;-82
2023/07/19 08:41:24;;;;;;;;;;;27.60;50.60;;;28.07;29.20;98432.72;4988497;28;119523;-81
2023/07/19 08:43:51;;;;;;;;;;;27.60;50.80;;;28.13;29.86;98442.34;4985213;28;118868;-83
2023/07/19 08:46:18;;;;;;;;;;;27.70;51.30;;;28.16;29.96;98441.47;4988921;28;122827;-82
2023/07/19 08:48:45;;;;;;;;;;;27.70;51.70;;;28.20;28.97;98445.00;4985194;28;124572;-82
2023/07/19 08:51:12;;;;;;;;;;;27.70;50.10;;;28.25;28.86;98434.38;4986043;28;118551;-81
2023/07/19 08:53:41;;;;;;;;;;;27.80;50.10;;;28.30;28.48;98434.66;4972788;28;118278;-82
2023/07/19 08:56:07;;;;;;;;;;;27.80;49.40;;;28.35;28.19;98424.81;4986669;28;124229;-82
2023/07/19 08:58:37;;;;;;;;;;;27.90;48.80;;;28.37;27.96;98425.16;4977949;28;123793;-82
2023/07/19 09:01:04;;;;;;;;;;;27.80;48.10;;;28.37;28.21;98428.00;4982963;28;119639;-81
2023/07/19 09:03:30;;;;;;;;;;;27.90;48.30;;;28.39;27.65;98425.50;4980924;28;118711;-82
2023/07/19 09:05:56;;;;;;;;;;;27.90;47.60;;;28.40;27.98;98421.44;4983530;28;123705;-82
2023/07/19 09:08:35;;;;;;;;;;;27.90;47.90;;;28.42;27.96;98421.78;4988257;28;124327;-80
2023/07/19 09:11:01;;;;;;;;;;;28.00;47.90;;;28.41;27.79;98415.31;4987966;28;120004;-79
2023/07/19 09:13:31;;;;;;;;;;;28.00;47.20;;;28.45;27.91;98428.66;4986759;28;119160;-83
2023/07/19 09:15:57;;;;;;;;;;;28.00;47.50;;;28.48;27.11;98416.41;4968873;28;124378;-82
2023/07/19 09:18:28;;;;;;;;;;;28.00;46.20;;;28.49;27.49;98415.97;4985808;28;123788;-82
2023/07/19 09:20:58;;;;;;;;;;;28.10;46.60;;;28.49;27.35;98404.59;4984587;28;120778;-82
2023/07/19 09:23:25;;;;;;;;;;;28.10;46.70;;;28.49;27.73;98398.91;4984472;28;119752;-82
2023/07/19 09:25:56;;;;;;;;;;;28.10;46.40;;;28.52;27.39;98392.34;4985661;28;124175;-83
2023/07/19 09:28:29;;;;;;;;;;;28.10;46.30;;;28.55;27.53;98394.28;4983141;28;124630;-83
2023/07/19 09:31:07;;;;;;;;;;;28.20;46.40;;;28.60;26.88;98395.81;4988422;28;119001;-83
2023/07/19 09:33:34;;;;;;;;;;;28.20;45.70;;;28.61;26.92;98391.69;4986411;28;118868;-82
2023/07/19 09:36:02;;;;;;;;;;;28.20;45.60;;;28.59;26.58;98389.31;4983102;28;125035;-82
2023/07/19 09:38:29;;;;;;;;;;;28.20;44.70;;;28.60;26.18;98388.06;4971204;28;123033;-83
2023/07/19 09:40:55;;;;;;;;;;;28.20;44.10;;;28.63;26.26;98387.19;4985823;28;119961;-82
2023/07/19 09:43:22;;;;;;;;;;;28.20;44.10;;;28.65;26.57;98386.75;4985258;28;118760;-83
2023/07/19 09:45:49;;;;;;;;;;;28.20;44.20;;;28.68;26.05;98379.38;4984340;28;124981;-82
2023/07/19 09:48:16;;;;;;;;;;;28.30;43.40;;;28.66;25.92;98384.69;4987757;28;124346;-82
2023/07/19 09:50:43;;;;;;;;;;;28.30;43.20;;;28.67;26.18;98391.97;4975944;28;120034;-83
2023/07/19 09:53:15;;;;;;;;;;;28.40;43.60;;;28.69;26.03;98387.44;4984168;28;118531;-83
2023/07/19 09:55:44;;;;;;;;;;;28.40;43.30;;;28.69;25.70;98381.75;4985682;28;123689;-83
2023/07/19 09:58:12;;;;;;;;;;;28.40;42.90;;;28.71;25.89;98376.41;4966800;28;124204;-82
2023/07/19 10:00:39;;;;;;;;;;;28.40;43.30;;;28.75;26.14;98362.94;4984030;28;119349;-83
2023/07/19 10:03:07;;;;;;;;;;;28.40;43.50;;;28.81;26.22;98366.81;4980915;28;118974;-83
2023/07/19 10:05:37;;;;;;;;;;;28.50;44.10;;;28.89;26.44;98378.00;4984763;28;124355;-82
2023/07/19 10:08:05;;;;;;;;;;;28.50;44.00;;;28.92;26.08;98389.28;4985176;28;125190;-83
2023/07/19 10:10:41;;;;;;;;;;;28.60;43.90;;;28.94;25.96;98375.44;4986518;28;119951;-83
2023/07/19 10:13:08;;;;;;;;;;;28.60;43.60;;;28.95;26.20;98365.63;4984753;28;119671;-82
2023/07/19 10:15:36;;;;;;;;;;;28.60;43.40;;;28.96;26.34;98372.94;4983377;28;123205;-82
2023/07/19 10:18:11;;;;;;;;;;;28.60;43.70;;;29.00;26.13;98367.94;4983153;28;125616;-82
2023/07/19 10:20:37;;;;;;;;;;;28.70;43.00;;;29.03;26.21;98364.19;4986261;28;119895;-83
2023/07/19 10:23:05;;;;;;;;;;;28.70;43.80;;;29.08;26.36;98370.63;4981408;28;118951;-82
2023/07/19 10:25:45;;;;;;;;;;;28.70;43.90;;;29.09;26.46;98375.06;4972330;28;124631;-82
2023/07/19 10:28:13;;;;;;;;;;;28.70;43.80;;;29.10;26.63;98356.72;4983320;28;123882;-82
2023/07/19 10:30:50;;;;;;;;;;;28.80;43.80;;;29.13;26.54;98356.66;4985086;28;119296;-83
2023/07/19 10:33:23;;;;;;;;;;;28.70;43.90;;;29.21;26.54;98360.09;4984039;28;120276;-82
2023/07/19 10:35:52;;;;;;;;;;;28.80;44.30;;;29.27;27.01;98352.59;4983608;28;124205;-82
2023/07/19 10:38:30;;;;;;;;;;;28.90;44.60;;;29.35;26.52;98354.00;4984839;28;124003;-82
2023/07/19 10:40:58;;;;;;;;;;;28.90;44.30;;;29.38;26.65;98353.09;4985686;28;118772;-82
2023/07/19 10:43:30;;;;;;;;;;;29.00;44.20;;;29.42;27.21;98348.09;4981669;28;119192;-82
2023/07/19 10:45:59;;;;;;;;;;;29.00;44.60;;;29.50;26.88;98349.50;4982510;28;123464;-83
2023/07/19 10:48:32;;;;;;;;;;;29.10;44.90;;;29.57;26.95;98345.63;4983411;28;123861;-82
2023/07/19 10:51:03;;;;;;;;;;;29.10;45.00;;;29.64;27.04;98342.59;4985161;28;119654;-82
2023/07/19 10:53:47;;;;;;;;;;;29.20;45.00;;;29.71;27.01;98341.56;4986332;28;119268;-83
2023/07/19 10:56:15;;;;;;;;;;;29.20;45.90;;;29.83;26.95;98342.84;4981828;28;124431;-83
2023/07/19 10:58:44;;;;;;;;;;;29.30;45.30;;;29.88;27.05;98328.03;4967378;28;123814;-83
2023/07/19 11:01:11;;;;;;;;;;;29.40;44.80;;;29.92;26.70;98329.50;4981805;28;120371;-83
2023/07/19 11:03:38;;;;;;;;;;;29.40;44.60;;;29.98;26.85;98331.78;4979675;28;119859;-83
2023/07/19 11:06:07;;;;;;;;;;;29.50;44.50;;;30.05;26.69;98348.66;4977890;28;124440;-82
2023/07/19 11:08:33;;;;;;;;;;;29.60;44.50;;;30.07;26.30;98331.91;4973745;28;123948;-83
2023/07/19 11:11:00;;;;;;;;;;;29.60;44.30;;;30.09;26.36;98333.06;4982301;28;121689;-83
2023/07/19 11:13:26;;;;;;;;;;;29.60;44.40;;;30.14;27.02;98325.97;4984053;28;118587;-83